Time;durP1;ratioP1;P1;durP2;ratioP2;P2;SDS_P1;SDS_P2;PMS_P1;PMS_P2;Temp;Humidity;BMP_temperature;BMP_pressure;BME280_temperature;BME280_humidity;BME280_pressure;Samples;Min_cycle;Max_cycle;Signal;HPM_P1;HPM_P2
2024/01/11 00:02:02;;;;;;;6.20;2.67;;;-5.80;99.90;-3.70;97746.00;;;;5038117;28;21008;-74
2024/01/11 00:04:51;;;;;;;10.23;4.10;;;-5.70;99.90;-3.60;97746.00;;;;5030708;28;20501;-74
2024/01/11 00:07:40;;;;;;;7.40;3.20;;;-5.60;99.90;-3.80;97735.00;;;;5035542;28;20423;-74
2024/01/11 00:10:29;;;;;;;6.33;2.70;;;-5.60;99.90;-4.00;97743.00;;;;5034103;28;20415;-74
2024/01/11 00:13:19;;;;;;;6.37;2.80;;;-5.60;99.90;-4.60;97738.00;;;;5031532;28;20421;-74
2024/01/11 00:16:08;;;;;;;9.10;3.73;;;-5.70;99.90;-5.50;97710.00;;;;5039200;28;20454;-74
2024/01/11 00:18:57;;;;;;;9.17;3.97;;;-5.90;99.90;-4.90;97716.00;;;;5034097;28;20424;-72
2024/01/11 00:21:46;;;;;;;8.67;3.77;;;-6.10;99.90;-4.80;97721.00;;;;5035195;28;20818;-73
2024/01/11 00:24:34;;;;;;;6.20;2.67;;;-6.10;99.90;-4.90;97710.00;;;;5033475;28;20470;-73
2024/01/11 00:27:23;;;;;;;6.47;2.80;;;-6.10;99.90;-5.10;97717.00;;;;5025741;28;20444;-73
2024/01/11 00:30:14;;;;;;;7.57;3.23;;;-6.20;99.90;-4.90;97711.00;;;;5033053;28;20435;-73
2024/01/11 00:33:03;;;;;;;4.10;1.73;;;-6.20;99.90;-4.10;97731.00;;;;5031222;28;20938;-74
2024/01/11 00:35:52;;;;;;;7.63;3.00;;;-6.00;99.90;-4.10;97721.00;;;;5036220;28;20951;-75
2024/01/11 00:38:41;;;;;;;6.83;3.00;;;-6.00;99.90;-4.60;97720.00;;;;5034290;28;20436;-74
2024/01/11 00:41:30;;;;;;;11.30;4.53;;;-6.00;99.90;-4.40;97714.00;;;;5029335;28;20432;-73
2024/01/11 00:44:19;;;;;;;12.93;5.00;;;-5.40;99.90;-4.50;97713.00;;;;5031910;28;20475;-74
2024/01/11 00:47:10;;;;;;;6.67;2.93;;;-5.90;99.90;-4.30;97718.00;;;;5032320;28;20424;-74
2024/01/11 00:49:59;;;;;;;4.93;2.37;;;-6.00;99.90;-4.00;97718.00;;;;5033722;28;20798;-74
2024/01/11 00:52:48;;;;;;;8.47;3.53;;;-5.90;99.90;-4.30;97722.00;;;;5030062;28;20416;-74
2024/01/11 00:55:37;;;;;;;6.87;3.17;;;-5.90;99.90;-4.40;97724.00;;;;5031145;28;20456;-74
2024/01/11 00:58:26;;;;;;;6.03;2.77;;;-5.90;99.90;-4.70;97724.00;;;;5033074;28;20420;-74
2024/01/11 01:01:15;;;;;;;5.17;2.40;;;-5.90;99.90;-5.10;97727.00;;;;5038769;28;20442;-72
2024/01/11 01:04:05;;;;;;;6.43;2.97;;;-6.10;99.90;-5.60;97723.00;;;;5025810;28;20471;-74
2024/01/11 01:06:54;;;;;;;8.40;3.63;;;-6.20;99.90;-5.20;97725.00;;;;5035609;28;20804;-72
2024/01/11 01:09:43;;;;;;;17.17;7.20;;;-6.20;99.90;-4.90;97717.00;;;;5035945;28;20436;-73
2024/01/11 01:12:31;;;;;;;8.63;3.77;;;-6.20;99.90;-5.10;97729.00;;;;5034685;28;20438;-73
2024/01/11 01:15:20;;;;;;;4.37;2.20;;;-6.20;99.90;-5.00;97714.00;;;;5040356;28;20946;-73
2024/01/11 01:18:09;;;;;;;8.20;3.73;;;-6.20;99.90;-4.90;97718.00;;;;5036804;28;20788;-74
2024/01/11 01:20:59;;;;;;;8.40;3.97;;;-6.20;99.90;-4.90;97719.00;;;;5036485;28;21056;-74
2024/01/11 01:23:48;;;;;;;9.40;4.20;;;-6.20;99.90;-4.70;97726.00;;;;5036360;28;20548;-73
2024/01/11 01:26:37;;;;;;;6.67;3.23;;;-6.20;99.90;-5.20;97723.00;;;;5033019;28;20428;-74
2024/01/11 01:29:26;;;;;;;6.17;2.70;;;-6.20;99.90;-5.10;97727.00;;;;5024590;28;20933;-74
2024/01/11 01:32:15;;;;;;;7.00;3.10;;;-6.30;99.90;-4.70;97729.00;;;;5038936;28;20431;-74
2024/01/11 01:35:04;;;;;;;3.20;1.80;;;-6.30;99.90;-5.30;97709.00;;;;5029037;28;20447;-74
2024/01/11 01:37:54;;;;;;;8.83;4.00;;;-6.30;99.90;-5.00;97704.00;;;;5034036;28;20428;-74
2024/01/11 01:40:43;;;;;;;6.40;3.00;;;-6.30;99.90;-4.90;97709.00;;;;5031271;28;20437;-73
2024/01/11 01:43:32;;;;;;;8.93;3.90;;;-6.30;99.90;-4.80;97705.00;;;;5033900;28;20467;-73
2024/01/11 01:46:24;;;;;;;6.40;2.90;;;-6.30;99.90;-4.90;97707.00;;;;5029576;28;20444;-73
2024/01/11 01:49:14;;;;;;;6.53;3.03;;;-6.20;99.90;-5.30;97700.00;;;;5032450;28;20954;-74
2024/01/11 01:52:03;;;;;;;5.53;2.67;;;-6.30;99.90;-5.00;97708.00;;;;5032152;28;20505;-75
2024/01/11 01:54:54;;;;;;;10.10;4.50;;;-6.30;99.90;-5.20;97708.00;;;;5029833;28;20436;-74
2024/01/11 01:57:45;;;;;;;6.23;2.77;;;-6.40;99.90;-5.00;97705.00;;;;5031388;28;20450;-73
2024/01/11 02:00:34;;;;;;;7.43;3.27;;;-6.40;99.90;-5.10;97698.00;;;;5030226;28;20424;-74
2024/01/11 02:03:25;;;;;;;7.40;3.27;;;-6.40;99.90;-5.30;97700.00;;;;5031197;28;20459;-74
2024/01/11 02:06:16;;;;;;;4.90;2.30;;;-6.40;99.90;-4.90;97694.00;;;;5033904;28;20496;-74
2024/01/11 02:09:05;;;;;;;6.13;2.80;;;-6.40;99.90;-5.30;97690.00;;;;5034976;28;20419;-74
2024/01/11 02:11:56;;;;;;;9.43;3.93;;;-6.40;99.90;-5.60;97689.00;;;;5028006;28;20420;-74
2024/01/11 02:14:45;;;;;;;8.47;3.53;;;-6.50;99.90;-5.20;97682.00;;;;5032598;28;20976;-73
2024/01/11 02:17:34;;;;;;;7.00;3.10;;;-6.50;99.90;-5.20;97670.00;;;;5030827;28;20431;-73
2024/01/11 02:20:23;;;;;;;7.47;3.30;;;-6.50;99.90;-5.00;97689.00;;;;5035049;28;20423;-73
2024/01/11 02:23:17;;;;;;;7.67;3.37;;;-6.50;99.90;-4.60;97693.00;;;;5030940;28;20495;-74
2024/01/11 02:26:08;;;;;;;7.47;3.00;;;-6.40;99.90;-4.70;97684.00;;;;5029977;28;20479;-73
2024/01/11 02:28:57;;;;;;;11.43;4.67;;;-6.40;99.90;-4.50;97683.00;;;;5030433;28;20432;-73
2024/01/11 02:31:46;;;;;;;10.40;4.20;;;-6.30;99.90;-4.80;97680.00;;;;5030118;28;20441;-73
2024/01/11 02:34:36;;;;;;;7.00;2.90;;;-7.10;99.90;-5.30;97677.00;;;;5031281;28;20822;-74
2024/01/11 02:37:25;;;;;;;6.00;2.60;;;-6.30;99.90;-5.60;97677.00;;;;5030095;28;20419;-72
2024/01/11 02:40:15;;;;;;;7.30;3.10;;;-6.40;99.90;-5.70;97663.00;;;;5031812;28;20442;-74
2024/01/11 02:43:11;;;;;;;5.07;2.30;;;-6.50;99.90;-5.50;97667.00;;;;5028589;28;20435;-73
2024/01/11 02:46:00;;;;;;;8.47;3.43;;;-6.60;99.90;-5.30;97671.00;;;;5030463;28;20444;-73
2024/01/11 02:48:48;;;;;;;11.53;4.57;;;-6.50;99.90;-5.20;97667.00;;;;5027752;28;20440;-74
2024/01/11 02:51:37;;;;;;;14.63;5.97;;;-6.50;99.90;-5.00;97661.00;;;;5034258;28;20423;-74
2024/01/11 02:54:26;;;;;;;12.23;4.97;;;-6.60;99.90;-4.50;97659.00;;;;5031770;28;20470;-74
2024/01/11 02:57:15;;;;;;;7.77;3.37;;;-6.40;99.90;-4.30;97669.00;;;;5036970;28;20431;-75
2024/01/11 03:00:07;;;;;;;5.97;2.73;;;-6.30;99.90;-4.30;97668.00;;;;5034361;28;20431;-73
2024/01/11 03:02:56;;;;;;;9.57;3.90;;;-6.20;99.90;-4.60;97667.00;;;;5032062;28;20432;-74
2024/01/11 03:05:45;;;;;;;7.53;3.27;;;-6.00;99.90;-4.70;97664.00;;;;5033721;28;20440;-73
2024/01/11 03:08:34;;;;;;;8.17;3.40;;;-6.20;99.90;-4.90;97662.00;;;;5038084;28;20959;-73
2024/01/11 03:11:23;;;;;;;9.03;3.47;;;-6.20;99.90;-5.20;97665.00;;;;5039822;28;20434;-74
2024/01/11 03:14:11;;;;;;;10.13;4.10;;;-6.50;99.90;-5.70;97654.00;;;;5028195;28;20431;-74
2024/01/11 03:17:02;;;;;;;9.67;4.17;;;-6.40;99.90;-5.20;97656.00;;;;5035688;28;20424;-72
2024/01/11 03:19:51;;;;;;;10.30;4.13;;;-6.50;99.90;-4.70;97649.00;;;;5035758;28;20952;-74
2024/01/11 03:22:47;;;;;;;7.40;3.10;;;-6.50;99.90;-4.90;97645.00;;;;5036574;28;20933;-73
2024/01/11 03:25:35;;;;;;;9.90;4.07;;;-6.50;99.90;-5.00;97650.00;;;;5029052;28;20487;-73
2024/01/11 03:28:24;;;;;;;6.47;2.73;;;-6.40;99.90;-4.90;97645.00;;;;5037459;28;20443;-73
2024/01/11 03:31:13;;;;;;;9.00;3.83;;;-6.50;99.90;-4.90;97632.00;;;;5037036;28;20802;-73
2024/01/11 03:34:03;;;;;;;9.77;4.13;;;-6.40;99.90;-4.60;97635.00;;;;5033423;28;20934;-73
2024/01/11 03:36:52;;;;;;;8.50;3.50;;;-6.40;99.90;-4.40;97632.00;;;;5034462;28;20902;-73
2024/01/11 03:39:41;;;;;;;8.20;3.23;;;-6.30;99.90;-4.50;97618.00;;;;5035756;28;20427;-73
2024/01/11 03:42:30;;;;;;;10.40;3.93;;;-6.30;99.90;-4.70;97618.00;;;;5030844;28;20416;-73
2024/01/11 03:45:20;;;;;;;8.37;3.40;;;-6.30;99.90;-4.50;97627.00;;;;5035567;28;20470;-74
2024/01/11 03:48:09;;;;;;;9.50;3.80;;;-6.30;99.90;-4.90;97625.00;;;;5030382;28;20980;-73
2024/01/11 03:50:59;;;;;;;10.53;4.27;;;-6.30;99.90;-5.30;97608.00;;;;5033787;28;20842;-73
2024/01/11 03:53:48;;;;;;;10.97;4.33;;;-6.40;99.90;-5.40;97607.00;;;;5034716;28;20436;-72
2024/01/11 03:56:40;;;;;;;7.17;3.00;;;-6.50;99.90;-5.20;97594.00;;;;5035674;28;20436;-74
2024/01/11 03:59:28;;;;;;;8.00;3.13;;;-6.50;99.90;-5.40;97606.00;;;;5034448;28;20431;-72
2024/01/11 04:02:17;;;;;;;12.33;4.57;;;-6.60;99.90;-5.50;97596.00;;;;5036313;28;20444;-74
2024/01/11 04:05:07;;;;;;;8.10;3.33;;;-6.70;99.90;-6.30;97588.00;;;;5028768;28;20499;-73
2024/01/11 04:07:57;;;;;;;10.90;4.23;;;-6.70;99.90;-6.20;97596.00;;;;5035426;28;20428;-74
2024/01/11 04:10:46;;;;;;;9.30;3.67;;;-6.80;99.90;-6.00;97586.00;;;;5032299;28;20431;-73
2024/01/11 04:13:35;;;;;;;9.00;3.53;;;-6.90;99.90;-5.10;97593.00;;;;5029950;28;20431;-72
2024/01/11 04:16:24;;;;;;;8.27;3.30;;;-6.80;99.90;-5.00;97589.00;;;;5030768;28;20825;-72
2024/01/11 04:19:13;;;;;;;9.57;3.80;;;-6.80;99.90;-5.30;97592.00;;;;5033574;28;20830;-73
2024/01/11 04:22:02;;;;;;;8.87;3.37;;;-6.70;99.90;-5.80;97583.00;;;;5029610;28;20413;-74
2024/01/11 04:24:52;;;;;;;15.93;5.70;;;-6.70;99.90;-5.30;97582.00;;;;5032770;28;20483;-74
2024/01/11 04:27:41;;;;;;;11.57;6.13;;;-6.60;99.90;-5.30;97581.00;;;;5035048;28;20427;-75
2024/01/11 04:30:30;;;;;;;19.53;7.47;;;-6.60;99.90;-4.90;97593.00;;;;5036481;28;20428;-75
2024/01/11 04:33:19;;;;;;;9.97;3.97;;;-6.60;99.90;-4.90;97577.00;;;;5035163;28;20420;-74
2024/01/11 04:36:08;;;;;;;5.60;2.63;;;-6.50;99.90;-5.30;97572.00;;;;5036373;28;20454;-75
2024/01/11 04:38:57;;;;;;;16.33;8.23;;;-6.60;99.90;-5.60;97574.00;;;;5036970;28;21203;-72
2024/01/11 04:41:47;;;;;;;3.57;1.67;;;-6.70;99.90;-6.20;97548.00;;;;5033600;28;20444;-72
2024/01/11 04:44:36;;;;;;;12.27;4.43;;;-6.70;99.90;-6.30;97559.00;;;;5028670;28;20456;-73
2024/01/11 04:47:25;;;;;;;10.00;4.50;;;-6.80;99.90;-5.80;97555.00;;;;5027712;28;20826;-75
2024/01/11 04:50:14;;;;;;;6.63;2.97;;;-6.80;99.90;-5.50;97556.00;;;;5033641;28;20424;-73
2024/01/11 04:53:03;;;;;;;7.03;3.23;;;-6.80;99.90;-5.20;97574.00;;;;5029785;28;20942;-74
2024/01/11 04:55:52;;;;;;;29.43;15.83;;;-6.70;99.90;-5.30;97548.00;;;;5027522;28;20436;-73
2024/01/11 04:58:43;;;;;;;5.10;2.57;;;-6.70;99.90;-5.60;97548.00;;;;5032161;28;20786;-75
2024/01/11 05:01:32;;;;;;;8.33;4.20;;;-6.70;99.90;-5.60;97544.00;;;;5032906;28;20424;-75
2024/01/11 05:04:21;;;;;;;9.30;4.17;;;-6.70;99.90;-5.70;97541.00;;;;5033364;28;20790;-75
2024/01/11 05:07:10;;;;;;;5.13;2.73;;;-6.70;99.90;-6.00;97550.00;;;;5037851;28;20416;-75
2024/01/11 05:09:59;;;;;;;6.83;3.63;;;-6.80;99.90;-6.20;97542.00;;;;5033756;28;20436;-74
2024/01/11 05:12:47;;;;;;;5.07;2.73;;;-6.90;99.90;-5.80;97551.00;;;;5022332;28;20448;-75
2024/01/11 05:15:38;;;;;;;4.73;2.47;;;-6.90;99.90;-6.10;97543.00;;;;5023611;28;20448;-73
2024/01/11 05:18:27;;;;;;;5.10;2.67;;;-6.90;99.90;-5.60;97546.00;;;;5029793;28;20420;-75
2024/01/11 05:21:16;;;;;;;4.57;2.27;;;-6.80;99.90;-5.30;97551.00;;;;5032070;28;20810;-74
2024/01/11 05:24:06;;;;;;;8.00;3.70;;;-6.70;99.90;-5.60;97543.00;;;;5035067;28;21055;-76
2024/01/11 05:26:56;;;;;;;8.80;4.37;;;-6.60;99.90;-5.70;97539.00;;;;5025953;28;20478;-72
2024/01/11 05:29:45;;;;;;;5.00;2.47;;;-6.60;99.90;-5.80;97544.00;;;;5032788;28;20438;-76
2024/01/11 05:32:35;;;;;;;5.43;2.93;;;-6.70;99.90;-5.80;97544.00;;;;5025216;28;20447;-75
2024/01/11 05:35:27;;;;;;;5.03;2.57;;;-6.80;99.90;-5.80;97542.00;;;;5028919;28;21288;-76
2024/01/11 05:38:16;;;;;;;9.13;4.30;;;-6.80;99.90;-5.00;97564.00;;;;5027647;28;20517;-75
2024/01/11 05:41:05;;;;;;;2.83;1.67;;;-6.70;99.90;-5.30;97545.00;;;;5027284;28;20432;-75
2024/01/11 05:43:54;;;;;;;6.47;3.23;;;-6.70;99.90;-5.50;97535.00;;;;5023515;28;20452;-75
2024/01/11 05:46:44;;;;;;;8.80;4.00;;;-6.70;99.90;-5.50;97538.00;;;;5030001;28;20463;-75
2024/01/11 05:49:34;;;;;;;6.53;2.87;;;-6.70;99.90;-5.00;97548.00;;;;5030497;28;21152;-74
2024/01/11 05:52:23;;;;;;;8.47;3.87;;;-6.60;99.90;-4.80;97550.00;;;;5027659;28;20428;-75
2024/01/11 05:55:12;;;;;;;6.97;2.83;;;-6.50;99.90;-5.20;97568.00;;;;5032465;28;20823;-74
2024/01/11 05:58:01;;;;;;;16.97;6.17;;;-6.50;99.90;-5.60;97544.00;;;;5032960;28;20428;-73
2024/01/11 06:00:50;;;;;;;15.60;5.53;;;-6.50;99.90;-6.00;97543.00;;;;5031618;28;20440;-75
2024/01/11 06:03:39;;;;;;;17.30;6.73;;;-6.60;99.90;-6.00;97556.00;;;;5025960;28;21202;-74
2024/01/11 06:06:29;;;;;;;14.47;5.40;;;-6.70;99.90;-5.60;97545.00;;;;5026604;28;20478;-74
2024/01/11 06:09:18;;;;;;;5.80;2.40;;;-6.70;99.90;-5.00;97560.00;;;;5034369;28;20963;-75
2024/01/11 06:12:07;;;;;;;9.43;3.80;;;-6.70;99.90;-5.40;97547.00;;;;5032823;28;20555;-74
2024/01/11 06:14:56;;;;;;;13.77;4.90;;;-6.70;99.90;-5.50;97540.00;;;;5027445;28;21061;-73
2024/01/11 06:17:45;;;;;;;11.53;4.67;;;-6.70;99.90;-6.20;97544.00;;;;5031405;28;20435;-73
2024/01/11 06:20:33;;;;;;;10.43;3.97;;;-6.80;99.90;-6.20;97540.00;;;;5029818;28;20424;-74
2024/01/11 06:23:26;;;;;;;10.67;4.80;;;-6.80;99.90;-6.20;97539.00;;;;5028907;28;20836;-75
2024/01/11 06:26:16;;;;;;;12.00;5.30;;;-6.90;99.90;-5.40;97540.00;;;;5030626;28;20487;-72
2024/01/11 06:29:05;;;;;;;11.63;5.53;;;-6.80;99.90;-5.30;97534.00;;;;5031243;28;20435;-74
2024/01/11 06:31:54;;;;;;;11.63;4.80;;;-6.50;99.90;-5.30;97531.00;;;;5035257;28;20428;-73
2024/01/11 06:34:45;;;;;;;10.57;4.07;;;-6.40;99.90;-6.20;97523.00;;;;5033963;28;20501;-71
2024/01/11 06:37:34;;;;;;;12.17;6.93;;;-6.50;99.90;-6.20;97525.00;;;;5031683;28;20423;-74
2024/01/11 06:40:25;;;;;;;4.93;2.80;;;-6.60;99.90;-6.40;97522.00;;;;5034267;28;20916;-74
2024/01/11 06:43:14;;;;;;;4.80;2.50;;;-6.80;99.90;-6.10;97526.00;;;;5029698;28;20843;-73
2024/01/11 06:46:06;;;;;;;12.20;6.03;;;-6.80;99.90;-6.70;97522.00;;;;5034568;28;20464;-72
2024/01/11 06:48:55;;;;;;;5.67;3.17;;;-6.90;99.90;-6.20;97532.00;;;;5028910;28;20792;-71
2024/01/11 06:51:44;;;;;;;6.57;3.50;;;-7.00;99.90;-6.10;97535.00;;;;5028015;28;20428;-73
2024/01/11 06:54:33;;;;;;;7.93;4.30;;;-7.70;99.90;-6.20;97525.00;;;;5028990;28;20440;-73
2024/01/11 06:57:24;;;;;;;5.87;3.17;;;-7.00;99.90;-6.30;97521.00;;;;5031073;28;20429;-73
2024/01/11 07:00:14;;;;;;;26.97;12.57;;;-6.90;99.90;-5.80;97530.00;;;;5021159;28;20438;-74
2024/01/11 07:03:03;;;;;;;5.67;3.47;;;-6.80;99.90;-5.50;97535.00;;;;5031622;28;20431;-73
2024/01/11 07:05:52;;;;;;;7.30;3.97;;;-6.70;99.90;-5.30;97532.00;;;;5029434;28;20473;-74
2024/01/11 07:08:41;;;;;;;16.33;8.67;;;-6.60;99.90;-5.90;97521.00;;;;5009993;28;20435;-75
2024/01/11 07:11:30;;;;;;;28.70;13.53;;;-6.60;99.90;-6.40;97516.00;;;;5011401;28;20443;-76
2024/01/11 07:14:21;;;;;;;24.87;12.53;;;-6.80;99.90;-6.60;97512.00;;;;5013110;28;21368;-72
2024/01/11 07:17:10;;;;;;;25.20;12.20;;;-6.70;99.90;-6.10;97517.00;;;;5012234;28;20436;-76
2024/01/11 07:19:58;;;;;;;22.33;11.67;;;-6.70;99.90;-6.10;97520.00;;;;5013798;28;20459;-73
2024/01/11 07:22:47;;;;;;;19.67;9.43;;;-6.70;99.90;-6.50;97514.00;;;;5012772;28;20799;-74
2024/01/11 07:25:36;;;;;;;19.77;10.27;;;-6.70;99.90;-6.00;97521.00;;;;5013396;28;20747;-71
2024/01/11 07:28:25;;;;;;;12.47;6.23;;;-6.70;99.90;-5.90;97517.00;;;;5013633;28;20436;-76
2024/01/11 07:31:16;;;;;;;21.37;11.37;;;-6.60;99.90;-6.00;97525.00;;;;5015762;28;20438;-74
2024/01/11 07:34:05;;;;;;;12.60;6.63;;;-6.50;99.90;-6.20;97515.00;;;;5010501;28;20435;-75
2024/01/11 07:36:54;;;;;;;18.00;9.97;;;-6.50;99.90;-6.10;97526.00;;;;5013793;28;21014;-73
2024/01/11 07:39:43;;;;;;;14.57;8.67;;;-6.50;99.90;-6.40;97514.00;;;;5012614;28;20429;-72
2024/01/11 07:42:32;;;;;;;21.13;11.23;;;-6.50;99.90;-6.00;97517.00;;;;5012949;28;20441;-71
2024/01/11 07:45:21;;;;;;;18.60;10.20;;;-6.50;99.90;-5.30;97515.00;;;;5010947;28;20466;-75
2024/01/11 07:48:11;;;;;;;5.80;3.30;;;-6.40;99.90;-5.50;97516.00;;;;5014389;28;20443;-74
2024/01/11 07:51:01;;;;;;;3.63;2.50;;;-6.40;99.90;-5.10;97517.00;;;;5034740;28;20424;-73
2024/01/11 07:53:49;;;;;;;4.17;2.67;;;-6.20;99.90;-5.00;97515.00;;;;5020563;28;20451;-72
2024/01/11 07:56:38;;;;;;;4.27;2.70;;;-6.00;99.90;-4.90;97504.00;;;;5035612;28;20929;-75
2024/01/11 07:59:27;;;;;;;3.40;2.07;;;-5.90;99.90;-4.50;97518.00;;;;5032430;28;20450;-75
2024/01/11 08:02:16;;;;;;;16.00;9.03;;;-5.80;99.90;-4.40;97509.00;;;;5029791;28;20436;-75
2024/01/11 08:05:08;;;;;;;18.93;9.50;;;-5.70;99.90;-4.50;97520.00;;;;5013828;28;20501;-76
2024/01/11 08:07:56;;;;;;;18.87;10.17;;;-5.60;99.90;-4.60;97519.00;;;;5013702;28;20540;-75
2024/01/11 08:10:45;;;;;;;4.17;2.50;;;-5.50;99.90;-4.40;97519.00;;;;5020474;28;20448;-75
2024/01/11 08:13:34;;;;;;;17.17;9.67;;;-5.40;99.90;-5.50;97515.00;;;;5026225;28;20431;-74
2024/01/11 08:16:23;;;;;;;4.27;2.67;;;-5.50;99.90;-5.30;97501.00;;;;5025726;28;20448;-72
2024/01/11 08:19:13;;;;;;;5.17;3.10;;;-5.60;99.90;-4.60;97523.00;;;;5037073;28;20427;-73
2024/01/11 08:22:04;;;;;;;9.97;5.37;;;-5.60;99.90;-4.40;97519.00;;;;5030867;28;20485;-75
2024/01/11 08:24:53;;;;;;;22.07;10.87;;;-5.60;99.90;-5.10;97496.00;;;;5019703;28;20456;-74
2024/01/11 08:27:41;;;;;;;4.13;2.40;;;-5.60;99.90;-4.70;97504.00;;;;5030353;28;20463;-72
2024/01/11 08:30:31;;;;;;;4.20;2.60;;;-5.50;99.90;-4.50;97498.00;;;;5033722;28;20428;-70
2024/01/11 08:33:19;;;;;;;5.30;3.00;;;-5.40;99.90;-4.00;97502.00;;;;5034908;28;20427;-71
2024/01/11 08:36:08;;;;;;;4.80;2.73;;;-5.30;99.90;-4.10;97502.00;;;;5030409;28;21001;-71
2024/01/11 08:38:59;;;;;;;7.37;4.07;;;-5.30;99.90;-4.10;97498.00;;;;5031667;28;20425;-70
2024/01/11 08:41:48;;;;;;;12.73;6.97;;;-5.20;99.90;-4.00;97499.00;;;;5021852;28;20431;-73
2024/01/11 08:44:36;;;;;;;5.57;3.07;;;-5.10;99.90;-4.30;97485.00;;;;5037562;28;20948;-71
2024/01/11 08:47:25;;;;;;;3.03;2.00;;;-5.10;99.90;-4.10;97509.00;;;;5033790;28;20464;-73
2024/01/11 08:50:15;;;;;;;4.30;2.40;;;-5.10;99.90;-4.00;97503.00;;;;5028417;28;20432;-70
2024/01/11 08:53:04;;;;;;;5.03;2.97;;;-5.00;99.90;-4.00;97517.00;;;;5027050;28;20429;-73
2024/01/11 08:55:54;;;;;;;25.37;12.37;;;-4.90;99.90;-3.60;97517.00;;;;5023179;28;20558;-72
2024/01/11 08:58:43;;;;;;;22.00;9.57;;;-4.80;99.90;-3.60;97503.00;;;;5011079;28;20431;-73
2024/01/11 09:01:35;;;;;;;32.10;14.00;;;-3.50;99.90;-3.70;97503.00;;;;5015701;28;20436;-74
2024/01/11 09:04:24;;;;;;;34.77;14.00;;;-4.50;99.90;-3.20;97501.00;;;;5013233;28;20433;-71
2024/01/11 09:07:13;;;;;;;26.27;11.30;;;-4.40;99.90;-3.40;97496.00;;;;5012089;28;20509;-72
2024/01/11 09:10:01;;;;;;;21.43;8.77;;;-4.30;99.90;-2.90;97504.00;;;;5013431;28;20439;-72
2024/01/11 09:12:52;;;;;;;8.10;3.73;;;-4.20;99.90;-2.40;97512.00;;;;5029937;28;20441;-72
2024/01/11 09:15:41;;;;;;;5.83;2.97;;;-4.10;99.90;-2.20;97503.00;;;;5027962;28;20462;-70
2024/01/11 09:18:30;;;;;;;28.90;11.77;;;-3.90;99.90;-2.10;97499.00;;;;5012957;28;20436;-71
2024/01/11 09:21:19;;;;;;;29.37;11.53;;;-3.70;99.90;-2.10;97504.00;;;;5009542;28;21028;-69
2024/01/11 09:24:08;;;;;;;32.83;13.33;;;-3.60;99.90;-2.00;97512.00;;;;5010875;28;20435;-72
2024/01/11 09:26:57;;;;;;;22.73;8.93;;;-3.40;99.90;-1.60;97511.00;;;;5006002;28;20479;-71
2024/01/11 09:29:47;;;;;;;33.43;13.23;;;-3.30;99.90;-1.20;97515.00;;;;5011416;28;20443;-70
2024/01/11 09:32:37;;;;;;;24.37;9.37;;;-3.10;99.90;-0.90;97519.00;;;;5012141;28;20436;-72
2024/01/11 09:35:26;;;;;;;35.10;13.73;;;-2.90;99.90;-1.00;97514.00;;;;5011921;28;20466;-71
2024/01/11 09:38:15;;;;;;;22.97;8.60;;;-2.70;99.90;-0.30;97513.00;;;;5012831;28;20486;-70
2024/01/11 09:41:09;;;;;;;38.07;14.50;;;-2.80;99.90;-0.40;97513.00;;;;5009632;28;20443;-73
2024/01/11 09:44:02;;;;;;;31.23;11.70;;;-2.20;99.90;-1.40;97491.00;;;;5009398;28;20419;-71
2024/01/11 09:46:53;;;;;;;28.57;11.47;;;-2.20;99.90;-1.20;97484.00;;;;5010960;28;20476;-71
2024/01/11 09:49:43;;;;;;;40.27;15.00;;;-2.30;99.90;-1.00;97475.00;;;;5014077;28;20449;-70
2024/01/11 09:52:32;;;;;;;40.30;15.07;;;-2.20;99.90;-0.40;97477.00;;;;5019888;28;21098;-70
2024/01/11 09:55:22;;;;;;;29.20;11.40;;;-2.00;99.90;-0.20;97494.00;;;;5010096;28;20462;-70
2024/01/11 09:58:11;;;;;;;42.13;15.30;;;-1.90;99.90;-0.50;97481.00;;;;5002173;28;20427;-72
2024/01/11 10:01:01;;;;;;;33.60;12.80;;;-1.80;99.90;0.10;97479.00;;;;5010073;28;21169;-72
2024/01/11 10:03:51;;;;;;;39.20;14.55;;;-1.70;99.90;-0.50;97467.00;;;;5008997;28;20967;-72
2024/01/11 10:06:40;;;;;;;27.07;10.37;;;-1.60;99.90;0.00;97471.00;;;;5011234;28;20476;-72
2024/01/11 10:09:29;;;;;;;41.13;15.33;;;-1.50;99.90;0.40;97478.00;;;;5026958;28;20428;-71
2024/01/11 10:12:23;;;;;;;34.07;13.07;;;-1.40;99.90;0.70;97466.00;;;;5009390;28;20458;-71
2024/01/11 10:15:13;;;;;;;28.77;10.90;;;-1.20;99.90;0.70;97466.00;;;;5007040;28;20844;-72
2024/01/11 10:18:02;;;;;;;31.40;11.50;;;-1.00;99.90;0.50;97462.00;;;;5008607;28;20436;-72
2024/01/11 10:20:52;;;;;;;30.40;11.67;;;-0.90;99.90;0.90;97451.00;;;;5009312;28;20448;-72
2024/01/11 10:23:42;;;;;;;28.27;10.57;;;-0.70;99.90;1.50;97447.00;;;;5007615;28;20427;-73
2024/01/11 10:26:32;;;;;;;33.20;12.63;;;-0.50;99.90;1.90;97459.00;;;;5009909;28;21037;-72
2024/01/11 10:29:21;;;;;;;26.83;9.97;;;-0.10;99.90;1.80;97447.00;;;;5008485;28;20432;-73
2024/01/11 10:32:11;;;;;;;38.07;14.03;;;0.10;99.90;2.60;97448.00;;;;5008426;28;20814;-73
2024/01/11 10:35:00;;;;;;;30.00;10.87;;;0.50;99.90;2.60;97449.00;;;;5005873;28;20459;-73
2024/01/11 10:37:54;;;;;;;36.83;13.43;;;1.50;99.90;5.20;97457.00;;;;5009898;28;21850;-74
2024/01/11 10:40:43;;;;;;;41.63;15.00;;;2.70;99.90;5.00;97451.00;;;;5009013;28;20420;-71
2024/01/11 10:43:34;;;;;;;42.17;15.50;;;4.00;99.90;6.60;97461.00;;;;5009531;28;20446;-71
2024/01/11 10:46:28;;;;;;;46.87;16.87;;;5.10;99.90;7.60;97456.00;;;;5010459;28;20232;-73
2024/01/11 10:49:20;;;;;;;45.57;18.47;;;6.30;98.70;7.60;97448.00;;;;5012434;28;20224;-73
2024/01/11 10:52:10;;;;;;;58.20;29.93;;;7.10;96.20;7.10;97440.00;;;;5012244;28;20224;-72
2024/01/11 10:55:02;;;;;;;20.83;15.37;;;7.50;93.00;7.70;97427.00;;;;5014525;28;20232;-70
2024/01/11 10:57:52;;;;;;;59.20;30.37;;;7.70;92.10;7.70;97427.00;;;;5009638;28;20201;-72
2024/01/11 11:00:41;;;;;;;47.33;22.37;;;8.00;90.50;7.30;97414.00;;;;5007265;28;20213;-70
2024/01/11 11:03:31;;;;;;;60.20;29.50;;;8.00;88.10;6.60;97401.00;;;;5008111;28;20212;-72
2024/01/11 11:06:22;;;;;;;43.73;22.03;;;7.70;87.10;7.20;97405.00;;;;5009563;28;20856;-72
2024/01/11 11:09:14;;;;;;;56.07;30.93;;;7.80;88.00;7.30;97396.00;;;;5008712;28;20233;-72
2024/01/11 11:12:07;;;;;;;46.60;27.97;;;8.10;87.30;7.60;97398.00;;;;5011298;28;20215;-73
2024/01/11 11:14:57;;;;;;;66.90;40.80;;;8.30;85.00;9.00;97401.00;;;;5012602;28;20240;-72
2024/01/11 11:17:46;;;;;;;64.60;45.17;;;8.70;85.20;8.50;97379.00;;;;5021765;28;20209;-71
2024/01/11 11:20:35;;;;;;;27.47;25.43;;;9.00;82.40;8.50;97372.00;;;;5018984;28;20614;-73
2024/01/11 11:23:24;;;;;;;25.63;23.50;;;8.90;81.40;9.40;97379.00;;;;5027849;28;20280;-74
2024/01/11 11:26:17;;;;;;;36.33;33.73;;;9.20;82.60;9.30;97367.00;;;;5030626;28;20228;-74
2024/01/11 11:29:07;;;;;;;45.13;41.67;;;9.30;80.40;10.00;97366.00;;;;5033989;28;20204;-73
2024/01/11 11:31:59;;;;;;;41.57;37.97;;;9.60;79.80;8.70;97354.00;;;;5028665;28;20201;-75
2024/01/11 11:34:49;;;;;;;47.90;41.80;;;9.30;77.70;7.90;97352.00;;;;5021546;28;21135;-72
2024/01/11 11:37:39;;;;;;;35.83;33.40;;;9.00;77.30;9.50;97368.00;;;;5028750;28;20204;-72
2024/01/11 11:40:37;;;;;;;54.15;49.60;;;9.00;80.20;10.70;97366.00;;;;5037650;28;20205;-71
2024/01/11 11:43:28;;;;;;;64.60;58.93;;;9.50;79.80;10.20;97354.00;;;;5035060;28;20203;-73
2024/01/11 11:46:19;;;;;;;96.50;82.43;;;10.10;77.20;10.30;97357.00;;;;5030736;28;20247;-73
2024/01/11 11:49:10;;;;;;;107.70;87.70;;;10.20;74.60;9.30;97334.00;;;;5033993;28;20215;-73
2024/01/11 11:51:59;;;;;;;181.40;128.03;;;9.80;74.20;11.10;97338.00;;;;5018286;28;20208;-72
2024/01/11 11:54:48;;;;;;;120.03;94.10;;;9.80;76.80;10.00;97331.00;;;;5034530;28;20244;-72
2024/01/11 11:57:37;;;;;;;136.50;99.67;;;10.00;73.30;10.70;97333.00;;;;5030915;28;20205;-73
2024/01/11 12:00:30;;;;;;;134.63;99.37;;;10.00;75.10;11.50;97339.00;;;;5034779;28;20197;-71
2024/01/11 12:03:20;;;;;;;190.67;125.97;;;10.40;74.80;11.50;97346.00;;;;5031055;28;20204;-73
2024/01/11 12:06:11;;;;;;;167.07;117.47;;;10.50;74.00;12.40;97350.00;;;;5028225;28;20221;-72
2024/01/11 12:09:00;;;;;;;160.87;116.73;;;11.00;73.10;12.20;97342.00;;;;5026859;28;20568;-72
2024/01/11 12:11:49;;;;;;;150.10;118.07;;;11.50;70.60;12.70;97343.00;;;;5032997;28;20213;-72
2024/01/11 12:14:39;;;;;;;160.93;127.77;;;11.80;70.40;12.70;97334.00;;;;5031034;28;20275;-72
2024/01/11 12:17:28;;;;;;;166.87;129.37;;;11.90;69.20;11.80;97319.00;;;;5027909;28;20668;-74
2024/01/11 12:20:21;;;;;;;162.00;128.47;;;11.60;67.40;12.10;97313.00;;;;5032772;28;20567;-73
2024/01/11 12:23:10;;;;;;;159.17;128.10;;;11.20;69.00;12.10;97316.00;;;;5030031;28;20586;-73
2024/01/11 12:25:59;;;;;;;158.50;130.77;;;11.30;68.80;12.20;97315.00;;;;5028201;28;20247;-72
2024/01/11 12:28:48;;;;;;;154.23;128.77;;;11.30;68.90;12.70;97320.00;;;;5028648;28;20220;-73